Time;durP1;ratioP1;P1;durP2;ratioP2;P2;SDS_P1;SDS_P2;PMS_P1;PMS_P2;Temp;Humidity;BMP_temperature;BMP_pressure;BME280_temperature;BME280_humidity;BME280_pressure;Samples;Min_cycle;Max_cycle;Signal;HPM_P1;HPM_P2
2023/05/08 00:00:58;;;;;;;5.07;2.83;;;2.30;99.90;;;;;;4950596;28;20127;-67
2023/05/08 00:03:25;;;;;;;4.97;3.40;;;2.30;99.90;;;;;;4951335;28;20070;-62
2023/05/08 00:05:55;;;;;;;3.58;3.28;;;2.20;99.90;;;;;;4950340;28;20078;-74
2023/05/08 00:08:22;;;;;;;4.10;3.00;;;2.20;99.90;;;;;;4944725;28;20517;-67
2023/05/08 00:10:49;;;;;;;3.20;2.90;;;2.20;99.90;;;;;;4944469;28;20378;-71
2023/05/08 00:13:16;;;;;;;7.30;3.42;;;2.20;99.90;;;;;;4950451;28;20087;-63
2023/05/08 00:15:43;;;;;;;3.17;2.88;;;2.10;99.90;;;;;;4951939;28;20165;-65
2023/05/08 00:18:10;;;;;;;7.20;3.53;;;2.10;99.90;;;;;;4945755;28;20577;-68
2023/05/08 00:20:36;;;;;;;2.95;2.60;;;2.10;99.90;;;;;;4948286;28;20043;-66
2023/05/08 00:23:03;;;;;;;7.32;2.53;;;2.10;99.90;;;;;;4946232;28;20055;-62
2023/05/08 00:25:30;;;;;;;5.35;3.33;;;2.10;99.90;;;;;;4949532;28;20123;-68
2023/05/08 00:27:58;;;;;;;2.50;2.30;;;2.00;99.90;;;;;;4950286;28;20063;-66
2023/05/08 00:30:25;;;;;;;3.88;3.08;;;2.00;99.90;;;;;;4966751;28;20134;-64
2023/05/08 00:32:53;;;;;;;5.95;2.85;;;2.00;99.90;;;;;;4931240;28;20047;-68
2023/05/08 00:35:20;;;;;;;4.65;2.83;;;2.00;99.90;;;;;;4950773;28;20118;-62
2023/05/08 00:37:47;;;;;;;7.25;3.13;;;2.00;99.90;;;;;;4953288;28;20133;-68
2023/05/08 00:40:14;;;;;;;5.70;3.22;;;1.90;99.90;;;;;;4964201;28;20138;-62
2023/05/08 00:42:41;;;;;;;5.70;2.70;;;1.90;99.90;;;;;;4945350;28;20051;-68
2023/05/08 00:45:09;;;;;;;4.97;2.92;;;1.90;99.90;;;;;;4950729;28;20745;-66
2023/05/08 00:47:37;;;;;;;3.22;2.50;;;1.90;99.90;;;;;;4945447;28;20066;-62
2023/05/08 00:50:04;;;;;;;5.95;3.05;;;1.90;99.90;;;;;;4948615;28;20054;-66
2023/05/08 00:52:32;;;;;;;2.55;2.35;;;1.80;99.90;;;;;;4948734;28;20057;-66
2023/05/08 00:55:01;;;;;;;3.38;2.55;;;1.90;99.90;;;;;;4949429;28;20055;-74
2023/05/08 00:57:31;;;;;;;4.43;3.30;;;1.80;99.90;;;;;;4949676;28;20060;-63
2023/05/08 01:00:00;;;;;;;3.38;2.65;;;1.80;99.90;;;;;;4940229;28;20106;-76
2023/05/08 01:02:30;;;;;;;3.15;2.85;;;1.80;99.90;;;;;;4941945;28;20111;-63
2023/05/08 01:04:57;;;;;;;5.90;2.92;;;1.80;99.90;;;;;;4947478;28;20057;-63
2023/05/08 01:07:24;;;;;;;3.97;3.08;;;1.70;99.90;;;;;;4957458;28;20047;-76
2023/05/08 01:09:51;;;;;;;5.53;3.05;;;1.70;99.90;;;;;;4935447;28;20055;-71
2023/05/08 01:12:24;;;;;;;3.95;2.45;;;1.70;99.90;;;;;;4947109;28;20055;-67
2023/05/08 01:15:03;;;;;;;4.85;3.38;;;1.60;99.90;;;;;;4955824;28;20047;-67
2023/05/08 01:17:43;;;;;;;5.50;3.00;;;1.60;99.90;;;;;;4954643;28;20067;-64
2023/05/08 01:20:34;;;;;;;6.65;3.17;;;1.60;99.90;;;;;;4948309;28;20408;-63
2023/05/08 01:23:19;;;;;;;;;;;1.60;99.90;;;;;;4958568;28;20138;-68
2023/05/08 01:25:49;;;;;;;4.00;2.28;;;1.50;99.90;;;;;;4958780;28;20385;-69
2023/05/08 01:28:47;;;;;;;2.97;2.53;;;1.50;99.90;;;;;;4946580;28;20046;-66
2023/05/08 01:31:31;;;;;;;2.88;2.38;;;1.50;99.90;;;;;;4952069;28;20287;-63
2023/05/08 01:34:35;;;;;;;7.72;3.00;;;1.50;99.90;;;;;;4964325;28;20520;-69
2023/05/08 01:37:17;;;;;;;6.43;2.95;;;1.40;99.90;;;;;;4944000;28;20058;-63
2023/05/08 01:39:53;;;;;;;3.30;2.60;;;1.40;99.90;;;;;;4957031;28;20063;-63
2023/05/08 01:42:31;;;;;;;4.55;2.97;;;1.40;99.90;;;;;;4943063;28;20494;-81
2023/05/08 01:45:08;;;;;;;5.22;3.15;;;1.30;99.90;;;;;;4947135;28;20058;-67
2023/05/08 01:47:37;;;;;;;5.97;2.75;;;1.30;99.90;;;;;;4953006;28;20109;-67
2023/05/08 01:50:12;;;;;;;3.25;2.70;;;1.30;99.90;;;;;;4964711;28;20043;-63
2023/05/08 01:52:52;;;;;;;4.18;2.35;;;1.30;99.90;;;;;;4951963;28;20343;-67
2023/05/08 01:55:26;;;;;;;5.50;2.60;;;1.20;99.90;;;;;;4937600;29;20051;-63
2023/05/08 01:58:00;;;;;;;2.95;2.17;;;1.20;99.90;;;;;;4946566;28;20118;-64
2023/05/08 02:00:27;;;;;;;3.97;2.90;;;1.20;99.90;;;;;;4965052;28;20134;-72
2023/05/08 02:02:57;;;;;;;2.88;2.40;;;1.10;99.90;;;;;;4947191;28;20051;-64
2023/05/08 02:05:27;;;;;;;3.30;2.33;;;1.10;99.90;;;;;;4974312;28;20065;-70
2023/05/08 02:07:55;;;;;;;4.32;2.85;;;1.10;99.90;;;;;;4950381;28;20055;-63
2023/05/08 02:10:26;;;;;;;3.30;2.22;;;1.00;99.90;;;;;;4943504;28;20059;-62
2023/05/08 02:12:54;;;;;;;2.83;2.25;;;1.00;99.90;;;;;;4959851;28;20073;-62
2023/05/08 02:15:24;;;;;;;4.22;2.80;;;1.00;99.90;;;;;;4960220;28;20054;-66
2023/05/08 02:17:53;;;;;;;5.85;3.10;;;0.90;99.90;;;;;;4945364;28;20126;-69
2023/05/08 02:20:21;;;;;;;3.67;2.67;;;0.90;99.90;;;;;;4949518;28;20054;-63
2023/05/08 02:22:50;;;;;;;3.47;2.80;;;0.80;99.90;;;;;;4952961;28;20047;-61
2023/05/08 02:25:18;;;;;;;5.13;2.60;;;0.80;99.90;;;;;;4927949;29;20991;-63
2023/05/08 02:27:48;;;;;;;4.28;2.90;;;0.70;99.90;;;;;;4931859;28;20486;-64
2023/05/08 02:30:17;;;;;;;3.33;2.58;;;0.70;99.90;;;;;;4944222;28;20070;-69
2023/05/08 02:32:45;;;;;;;3.63;2.72;;;0.70;99.90;;;;;;4946582;28;20170;-69
2023/05/08 02:35:18;;;;;;;3.17;2.42;;;0.70;99.90;;;;;;4960766;28;20043;-62
2023/05/08 02:37:54;;;;;;;4.57;2.30;;;0.60;99.90;;;;;;4944910;29;20055;-62
2023/05/08 02:40:24;;;;;;;3.92;2.40;;;0.60;99.90;;;;;;4945802;28;20047;-69
2023/05/08 02:42:51;;;;;;;2.35;2.15;;;0.60;99.90;;;;;;4962164;28;20066;-63
2023/05/08 02:45:18;;;;;;;4.05;2.78;;;0.60;99.90;;;;;;4948948;28;20087;-61
2023/05/08 02:48:06;;;;;;;4.88;2.75;;;0.50;99.90;;;;;;4962591;28;20077;-71
2023/05/08 02:50:47;;;;;;;4.80;3.00;;;0.50;99.90;;;;;;4962595;28;20755;-68
2023/05/08 02:53:39;;;;;;;3.28;2.53;;;0.40;99.90;;;;;;4941004;28;20055;-67
2023/05/08 02:56:17;;;;;;;5.95;2.47;;;0.40;99.90;;;;;;4942054;28;20512;-67
2023/05/08 02:58:52;;;;;;;5.60;3.70;;;0.40;99.90;;;;;;4956922;28;20055;-65
2023/05/08 03:01:36;;;;;;;2.97;2.67;;;0.40;99.90;;;;;;4956466;28;20051;-65
2023/05/08 03:04:10;;;;;;;3.55;2.75;;;0.40;99.90;;;;;;4946726;28;20046;-63
2023/05/08 03:06:45;;;;;;;3.63;2.30;;;0.40;99.90;;;;;;4957289;28;20055;-76
2023/05/08 03:09:18;;;;;;;4.35;2.35;;;0.40;99.90;;;;;;4955870;28;20098;-62
2023/05/08 03:11:48;;;;;;;4.80;2.60;;;0.40;99.90;;;;;;4948242;28;20097;-62
2023/05/08 03:14:21;;;;;;;5.30;3.03;;;0.50;99.90;;;;;;4962907;28;20516;-63
2023/05/08 03:16:52;;;;;;;4.78;2.10;;;0.50;99.90;;;;;;4943556;28;20067;-69
2023/05/08 03:19:36;;;;;;;4.80;2.53;;;0.50;99.90;;;;;;5039710;28;20888;-61
2023/05/08 03:22:06;;;;;;;3.15;2.85;;;0.50;99.90;;;;;;5017587;28;20496;-63
2023/05/08 03:24:38;;;;;;;2.47;2.25;;;0.60;99.90;;;;;;5006926;28;20323;-67
2023/05/08 03:27:07;;;;;;;6.13;2.03;;;0.70;99.90;;;;;;4983152;28;20485;-67
2023/05/08 03:29:37;;;;;;;2.38;2.17;;;0.70;99.90;;;;;;4996184;28;20058;-65
2023/05/08 03:32:05;;;;;;;2.45;1.85;;;0.80;99.90;;;;;;4997216;28;20054;-61
2023/05/08 03:34:32;;;;;;;4.45;2.22;;;0.80;99.90;;;;;;4995001;28;20073;-62
2023/05/08 03:36:59;;;;;;;2.50;2.22;;;0.80;99.90;;;;;;4994118;28;20074;-64
2023/05/08 03:39:27;;;;;;;2.47;2.00;;;0.80;99.90;;;;;;5006033;28;20059;-65
2023/05/08 03:41:55;;;;;;;4.22;2.40;;;0.90;99.90;;;;;;5003856;28;20054;-70
2023/05/08 03:44:24;;;;;;;9.07;2.28;;;0.90;99.90;;;;;;4999599;28;20048;-61
2023/05/08 03:46:56;;;;;;;7.97;2.88;;;0.90;99.90;;;;;;5005198;28;20061;-70
2023/05/08 03:49:28;;;;;;;4.22;2.42;;;1.00;99.90;;;;;;4998982;28;20066;-61
2023/05/08 03:51:55;;;;;;;5.07;3.03;;;1.00;99.90;;;;;;4994359;28;20069;-72
2023/05/08 03:54:24;;;;;;;2.70;2.25;;;1.10;99.90;;;;;;4999957;28;20046;-64
2023/05/08 03:56:53;;;;;;;2.25;2.05;;;1.10;99.90;;;;;;4998642;28;20073;-73
2023/05/08 03:59:37;;;;;;;2.97;2.10;;;1.20;99.90;;;;;;4991830;28;20050;-61
2023/05/08 04:02:19;;;;;;;6.72;2.60;;;1.20;99.90;;;;;;5003311;28;20513;-62
2023/05/08 04:04:52;;;;;;;6.03;1.95;;;1.30;99.90;;;;;;5000276;28;20050;-60
2023/05/08 04:07:37;;;;;;;7.13;2.30;;;1.30;99.90;;;;;;5001728;28;20077;-63
2023/05/08 04:10:15;;;;;;;3.38;2.50;;;1.40;99.90;;;;;;5006676;28;20050;-61
2023/05/08 04:12:50;;;;;;;3.85;2.40;;;1.50;99.90;;;;;;5000588;28;20066;-63
2023/05/08 04:15:21;;;;;;;7.63;2.35;;;1.60;99.90;;;;;;4997777;28;20065;-61
2023/05/08 04:17:57;;;;;;;3.63;3.30;;;1.70;99.90;;;;;;4996840;28;20050;-72
2023/05/08 04:20:28;;;;;;;3.55;2.65;;;1.90;99.90;;;;;;4997219;28;20050;-59
2023/05/08 04:22:57;;;;;;;2.40;2.17;;;1.90;99.90;;;;;;5001744;28;20050;-62
2023/05/08 04:25:25;;;;;;;6.70;3.08;;;2.00;99.90;;;;;;5000212;28;20054;-62
2023/05/08 04:27:54;;;;;;;5.90;2.53;;;2.10;99.90;;;;;;4997506;28;20050;-63
2023/05/08 04:30:21;;;;;;;4.18;2.38;;;2.20;99.90;;;;;;5004446;28;21175;-62
2023/05/08 04:32:49;;;;;;;4.43;2.53;;;2.20;99.90;;;;;;4972233;28;20661;-68
2023/05/08 04:35:16;;;;;;;6.63;2.33;;;2.30;99.90;;;;;;4989908;28;20049;-64
2023/05/08 04:37:46;;;;;;;7.43;2.88;;;2.40;99.90;;;;;;5000676;28;20049;-63
2023/05/08 04:40:13;;;;;;;4.75;2.35;;;2.50;99.90;;;;;;4971603;28;20082;-67
2023/05/08 04:42:42;;;;;;;3.75;2.90;;;2.60;99.90;;;;;;4981931;28;20046;-61
2023/05/08 04:45:10;;;;;;;6.15;2.85;;;2.70;99.90;;;;;;4981031;28;20097;-64
2023/05/08 04:47:38;;;;;;;6.28;2.83;;;2.80;99.90;;;;;;4981663;28;20078;-67
2023/05/08 04:50:05;;;;;;;5.47;3.28;;;2.90;99.90;;;;;;4995645;28;20051;-60
2023/05/08 04:52:34;;;;;;;6.07;2.22;;;3.10;99.90;;;;;;4981504;28;20145;-61
2023/05/08 04:55:01;;;;;;;3.92;2.55;;;3.20;99.90;;;;;;4988334;28;20474;-66
2023/05/08 04:57:30;;;;;;;5.18;2.60;;;3.40;99.90;;;;;;4969423;28;20051;-65
2023/05/08 04:59:57;;;;;;;4.57;2.72;;;3.50;99.90;;;;;;4984891;28;20083;-66
2023/05/08 05:02:27;;;;;;;5.53;3.35;;;3.60;99.90;;;;;;4983435;28;20105;-65
2023/05/08 05:04:57;;;;;;;6.40;4.80;;;3.70;99.90;;;;;;4980638;28;20141;-72
2023/05/08 05:07:24;;;;;;;3.67;3.13;;;3.90;99.90;;;;;;4991877;28;20058;-70
2023/05/08 05:09:51;;;;;;;3.78;2.80;;;4.00;99.90;;;;;;4981146;28;20485;-67
2023/05/08 05:12:19;;;;;;;4.35;3.13;;;4.20;99.90;;;;;;4976994;28;20061;-63
2023/05/08 05:14:45;;;;;;;7.35;3.35;;;4.20;99.90;;;;;;4981350;28;20546;-71
2023/05/08 05:17:12;;;;;;;2.80;2.28;;;4.30;99.90;;;;;;4998642;28;20109;-76
2023/05/08 05:19:39;;;;;;;6.63;3.10;;;4.50;99.90;;;;;;4992323;28;20081;-73
2023/05/08 05:22:07;;;;;;;5.82;2.80;;;4.60;99.90;;;;;;4988886;28;20472;-66
2023/05/08 05:24:35;;;;;;;4.45;2.50;;;4.60;99.90;;;;;;4976946;28;20055;-67
2023/05/08 05:27:02;;;;;;;8.13;4.28;;;4.60;99.90;;;;;;4984159;28;20077;-63
2023/05/08 05:29:29;;;;;;;3.60;3.30;;;4.80;99.90;;;;;;4976765;28;20077;-62
2023/05/08 05:31:56;;;;;;;6.00;3.55;;;5.00;99.90;;;;;;4977573;28;20057;-66
2023/05/08 05:34:23;;;;;;;3.60;3.30;;;5.10;99.90;;;;;;4986302;28;20069;-68
2023/05/08 05:36:50;;;;;;;3.83;2.70;;;5.10;99.90;;;;;;4980372;28;20140;-68
2023/05/08 05:39:17;;;;;;;6.88;3.15;;;5.20;99.90;;;;;;4984178;28;20459;-66
2023/05/08 05:41:44;;;;;;;6.85;4.20;;;5.30;99.90;;;;;;4978032;28;20062;-65
2023/05/08 05:44:11;;;;;;;7.65;3.55;;;5.30;99.90;;;;;;4987460;28;20046;-62
2023/05/08 05:46:38;;;;;;;4.32;3.80;;;5.40;99.90;;;;;;4984490;28;20083;-65
2023/05/08 05:49:08;;;;;;;5.30;3.75;;;5.40;99.90;;;;;;4981824;28;20407;-61
2023/05/08 05:51:35;;;;;;;7.45;3.90;;;5.50;99.90;;;;;;4981374;28;20149;-65
2023/05/08 05:54:02;;;;;;;4.75;2.72;;;5.60;99.90;;;;;;4978585;28;20064;-62
2023/05/08 05:56:29;;;;;;;3.60;3.30;;;5.60;99.90;;;;;;4979313;28;20061;-62
2023/05/08 05:58:56;;;;;;;4.30;2.75;;;5.60;99.90;;;;;;4998545;28;20087;-64
2023/05/08 06:01:24;;;;;;;2.50;2.20;;;5.70;99.90;;;;;;4966917;28;20047;-62
2023/05/08 06:03:51;;;;;;;6.57;2.42;;;5.80;99.90;;;;;;4971142;28;20074;-63
2023/05/08 06:06:18;;;;;;;5.38;2.60;;;5.90;99.90;;;;;;4988332;28;20504;-63
2023/05/08 06:08:47;;;;;;;5.78;2.72;;;6.00;99.90;;;;;;4974569;28;20045;-62
2023/05/08 06:11:14;;;;;;;6.57;2.50;;;6.10;99.90;;;;;;4980663;28;20043;-61
2023/05/08 06:13:42;;;;;;;4.03;2.17;;;6.20;99.90;;;;;;4977536;28;20412;-61
2023/05/08 06:16:10;;;;;;;2.47;2.00;;;6.30;99.90;;;;;;4979136;28;20050;-69
2023/05/08 06:18:37;;;;;;;5.90;2.03;;;6.40;99.90;;;;;;4973148;28;20568;-61
2023/05/08 06:21:04;;;;;;;6.57;2.97;;;6.50;99.90;;;;;;4987072;28;20077;-79
2023/05/08 06:23:31;;;;;;;2.53;1.38;;;6.60;99.90;;;;;;4977100;28;20133;-62
2023/05/08 06:25:58;;;;;;;6.75;2.10;;;6.70;99.90;;;;;;4975838;28;20104;-65
2023/05/08 06:28:26;;;;;;;2.33;1.95;;;6.80;99.90;;;;;;4979457;28;20050;-60
2023/05/08 06:30:53;;;;;;;4.25;2.05;;;6.90;99.90;;;;;;4976240;28;20392;-64
2023/05/08 06:33:20;;;;;;;3.80;1.80;;;7.00;99.80;;;;;;4981606;28;20483;-64
2023/05/08 06:35:47;;;;;;;3.10;1.90;;;7.20;99.20;;;;;;4980024;28;20472;-67
2023/05/08 06:38:14;;;;;;;4.20;2.10;;;7.30;97.30;;;;;;4982950;28;20066;-64
2023/05/08 06:40:43;;;;;;;5.05;2.05;;;7.30;95.40;;;;;;4980092;28;20053;-61
2023/05/08 06:43:11;;;;;;;6.43;2.55;;;7.40;95.90;;;;;;4980429;28;20110;-61
2023/05/08 06:45:39;;;;;;;4.32;1.95;;;7.50;95.60;;;;;;4978566;28;20057;-64
2023/05/08 06:48:06;;;;;;;3.03;1.58;;;7.50;95.10;;;;;;4978501;28;20065;-69
2023/05/08 06:50:36;;;;;;;11.55;2.63;;;7.60;94.60;;;;;;4977600;28;20054;-66
2023/05/08 06:53:03;;;;;;;3.97;1.90;;;7.60;93.50;;;;;;4981890;28;20046;-61
2023/05/08 06:55:30;;;;;;;3.03;1.67;;;7.60;93.10;;;;;;4981084;28;20324;-70
2023/05/08 06:57:56;;;;;;;3.17;1.33;;;7.70;94.00;;;;;;4972312;28;20062;-69
2023/05/08 07:00:23;;;;;;;5.07;1.77;;;7.70;94.20;;;;;;4978827;28;20483;-60
2023/05/08 07:02:51;;;;;;;6.95;1.30;;;7.70;92.90;;;;;;4984212;28;20073;-61
2023/05/08 07:05:18;;;;;;;4.93;2.17;;;7.80;92.00;;;;;;4976329;28;20054;-77
2023/05/08 07:07:45;;;;;;;3.42;1.73;;;7.90;92.70;;;;;;4978222;28;20046;-61
2023/05/08 07:10:12;;;;;;;5.78;2.00;;;7.90;92.70;;;;;;4976362;28;20138;-60
2023/05/08 07:12:40;;;;;;;1.55;1.38;;;8.00;92.30;;;;;;4972242;28;20481;-75
2023/05/08 07:15:09;;;;;;;1.63;1.45;;;7.90;91.10;;;;;;4977442;28;20050;-61
2023/05/08 07:17:51;;;;;;;2.28;2.08;;;8.00;91.50;;;;;;4987262;28;20394;-62
2023/05/08 07:20:18;;;;;;;3.58;1.65;;;8.10;91.10;;;;;;4986122;28;20074;-60
2023/05/08 07:22:45;;;;;;;4.28;1.90;;;8.20;92.30;;;;;;4986985;28;20046;-60
2023/05/08 07:25:12;;;;;;;4.68;3.40;;;8.30;91.90;;;;;;4982018;28;20485;-61
2023/05/08 07:27:39;;;;;;;2.60;1.45;;;8.30;91.00;;;;;;4978199;28;20129;-78
2023/05/08 07:30:07;;;;;;;4.28;1.77;;;8.30;90.10;;;;;;4985088;28;20077;-61
2023/05/08 07:32:34;;;;;;;5.50;2.00;;;8.30;90.50;;;;;;4980009;28;20105;-64
2023/05/08 07:35:02;;;;;;;4.15;2.55;;;8.40;90.00;;;;;;4983397;28;20058;-61
2023/05/08 07:37:29;;;;;;;2.92;1.70;;;8.40;89.40;;;;;;4981289;28;20051;-61
2023/05/08 07:39:56;;;;;;;2.38;1.60;;;8.50;90.50;;;;;;4980549;28;20141;-63
2023/05/08 07:42:23;;;;;;;9.13;2.13;;;8.60;88.80;;;;;;4976538;28;20124;-61
2023/05/08 07:44:50;;;;;;;7.93;2.45;;;8.70;88.20;;;;;;4979976;28;20126;-60
2023/05/08 07:47:21;;;;;;;4.38;2.42;;;8.90;89.50;;;;;;4980708;28;20046;-73
2023/05/08 07:49:48;;;;;;;4.22;2.45;;;9.00;88.30;;;;;;4984880;28;20149;-64
2023/05/08 07:52:15;;;;;;;3.28;2.05;;;8.90;86.20;;;;;;4985313;28;20130;-62
2023/05/08 07:54:42;;;;;;;1.75;1.27;;;8.70;87.40;;;;;;4979419;28;20055;-64
2023/05/08 07:57:10;;;;;;;1.27;1.17;;;8.70;84.40;;;;;;4982650;28;20408;-61
2023/05/08 07:59:37;;;;;;;2.40;1.95;;;8.80;84.10;;;;;;4982237;28;20043;-61
2023/05/08 08:02:04;;;;;;;1.95;1.65;;;8.70;86.90;;;;;;4984615;28;20137;-62
2023/05/08 08:04:31;;;;;;;1.77;1.13;;;8.80;87.70;;;;;;4978821;28;20623;-64
2023/05/08 08:06:58;;;;;;;2.00;1.73;;;8.90;85.90;;;;;;4983095;28;20085;-62
2023/05/08 08:09:28;;;;;;;4.70;1.97;;;9.00;89.00;;;;;;4983083;28;20105;-65
2023/05/08 08:11:55;;;;;;;3.10;1.77;;;9.10;86.80;;;;;;4984361;28;20464;-70
2023/05/08 08:14:21;;;;;;;6.85;1.95;;;9.10;85.10;;;;;;4984486;28;20050;-63
2023/05/08 08:16:48;;;;;;;7.93;1.55;;;9.10;86.90;;;;;;4983782;28;20073;-69
2023/05/08 08:19:15;;;;;;;5.32;1.05;;;9.10;87.80;;;;;;4987932;28;20049;-61
2023/05/08 08:21:43;;;;;;;2.53;1.83;;;9.10;87.80;;;;;;4977721;28;20046;-65
2023/05/08 08:24:09;;;;;;;2.92;1.42;;;9.00;89.90;;;;;;4986770;28;20057;-64
2023/05/08 08:26:36;;;;;;;2.58;1.70;;;9.00;87.90;;;;;;4990764;28;20588;-62
2023/05/08 08:29:03;;;;;;;1.92;1.65;;;9.00;89.10;;;;;;4962657;28;20055;-63
2023/05/08 08:31:30;;;;;;;3.60;1.90;;;9.10;87.70;;;;;;4985512;28;20067;-70
2023/05/08 08:33:57;;;;;;;1.63;1.42;;;9.10;84.70;;;;;;4980370;28;20526;-67
2023/05/08 08:36:24;;;;;;;7.32;2.05;;;9.10;85.40;;;;;;4999655;28;20445;-61
2023/05/08 08:38:51;;;;;;;4.72;2.35;;;9.10;90.20;;;;;;4985290;28;20584;-71
2023/05/08 08:41:18;;;;;;;3.90;1.77;;;9.00;90.30;;;;;;4986686;28;20133;-61
2023/05/08 08:43:45;;;;;;;2.50;2.05;;;9.00;87.80;;;;;;4983138;28;20068;-61
2023/05/08 08:46:16;;;;;;;4.43;1.83;;;9.00;88.40;;;;;;4988404;28;20089;-62
2023/05/08 08:48:43;;;;;;;;;;;9.10;90.40;;;;;;4982805;28;20501;-63
2023/05/08 08:51:20;;;;;;;2.47;1.88;;;9.30;89.60;;;;;;4984072;28;20020;-64
2023/05/08 08:53:51;;;;;;;1.60;1.40;;;9.40;87.70;;;;;;4987393;28;20062;-61
2023/05/08 08:56:22;;;;;;;7.45;2.03;;;9.40;89.00;;;;;;4984878;28;20058;-61
2023/05/08 08:58:58;;;;;;;2.10;1.90;;;9.40;83.90;;;;;;4987303;28;20136;-65
2023/05/08 09:01:28;;;;;;;4.35;1.98;;;9.30;86.70;;;;;;4991522;28;20053;-61
2023/05/08 09:03:58;;;;;;;5.60;2.08;;;9.50;87.00;;;;;;4986403;28;20102;-70
2023/05/08 09:06:26;;;;;;;;;;;9.60;86.00;;;;;;4979299;28;20120;-63
2023/05/08 09:08:57;;;;;;;1.98;1.30;;;9.70;88.30;;;;;;4974436;28;19929;-61
2023/05/08 09:11:24;;;;;;;;;;;9.70;88.90;;;;;;4980122;28;20104;-73
2023/05/08 09:13:51;;;;;;;8.20;1.83;;;9.40;90.40;;;;;;4988632;28;19925;-62
2023/05/08 09:16:18;;;;;;;2.75;1.50;;;9.50;88.80;;;;;;4985064;28;20068;-62
2023/05/08 09:18:45;;;;;;;5.43;1.85;;;9.60;86.40;;;;;;4978676;28;20782;-61
2023/05/08 09:21:12;;;;;;;17.88;2.47;;;9.60;88.10;;;;;;4987031;28;20137;-64
2023/05/08 09:23:54;;;;;;;10.07;2.40;;;9.60;88.30;;;;;;5003663;28;20062;-61
2023/05/08 09:26:35;;;;;;;9.98;2.75;;;9.50;85.10;;;;;;4974136;28;20073;-61
2023/05/08 09:29:16;;;;;;;5.60;2.55;;;9.60;90.60;;;;;;4984498;28;20050;-61
2023/05/08 09:31:48;;;;;;;3.55;1.98;;;9.50;88.90;;;;;;4976921;28;20051;-61
2023/05/08 09:34:29;;;;;;;2.42;1.88;;;9.60;88.60;;;;;;4982451;28;20134;-61
2023/05/08 09:37:08;;;;;;;8.50;1.60;;;9.50;88.70;;;;;;4984821;28;20055;-62
2023/05/08 09:39:35;;;;;;;4.28;1.52;;;9.60;89.80;;;;;;4979697;28;20066;-62
2023/05/08 09:42:03;;;;;;;3.47;1.70;;;9.80;88.90;;;;;;4994310;28;20054;-66
2023/05/08 09:44:44;;;;;;;2.50;1.95;;;9.70;87.10;;;;;;4978697;28;20082;-71
2023/05/08 09:47:12;;;;;;;;;;;9.80;87.10;;;;;;4976185;28;20406;-74
2023/05/08 09:49:55;;;;;;;5.28;2.25;;;9.80;85.60;;;;;;4995410;28;19926;-63
2023/05/08 09:52:23;;;;;;;5.35;1.48;;;9.60;83.90;;;;;;4978615;28;20062;-61
2023/05/08 09:55:07;;;;;;;2.10;1.65;;;9.80;86.40;;;;;;4969102;28;20051;-65
2023/05/08 09:57:38;;;;;;;1.88;1.50;;;9.90;87.90;;;;;;4988930;28;20116;-61
2023/05/08 10:00:10;;;;;;;9.27;1.77;;;10.00;86.60;;;;;;4979008;28;20058;-61
2023/05/08 10:02:40;;;;;;;2.38;2.08;;;10.10;86.30;;;;;;4980097;28;20481;-63
2023/05/08 10:05:23;;;;;;;4.32;2.70;;;10.00;85.20;;;;;;4978540;28;20058;-64
2023/05/08 10:07:50;;;;;;;6.60;2.05;;;10.20;79.30;;;;;;4984090;28;20409;-61
2023/05/08 10:10:24;;;;;;;1.40;1.30;;;10.10;88.70;;;;;;4981091;28;20046;-65
2023/05/08 10:12:53;;;;;;;4.25;2.35;;;10.00;85.00;;;;;;4986994;28;20054;-63
2023/05/08 10:15:23;;;;;;;2.38;1.45;;;9.90;90.10;;;;;;4983601;28;20058;-61
2023/05/08 10:17:59;;;;;;;2.83;1.40;;;9.90;87.40;;;;;;4978531;28;20058;-61
2023/05/08 10:20:29;;;;;;;5.45;1.35;;;10.00;86.10;;;;;;4978318;28;20378;-61
2023/05/08 10:22:57;;;;;;;4.25;1.90;;;10.00;84.80;;;;;;4981215;28;20061;-64
2023/05/08 10:25:25;;;;;;;1.98;1.60;;;10.00;90.10;;;;;;4991264;28;20480;-66
2023/05/08 10:28:06;;;;;;;2.72;1.85;;;10.30;89.40;;;;;;4983093;28;20466;-62
2023/05/08 10:30:39;;;;;;;4.47;2.50;;;10.30;88.50;;;;;;4977999;28;20046;-65
2023/05/08 10:33:09;;;;;;;3.75;2.38;;;10.30;83.20;;;;;;4976239;28;20042;-62
2023/05/08 10:35:37;;;;;;;2.15;1.85;;;10.40;82.30;;;;;;4978541;28;20047;-64
2023/05/08 10:38:07;;;;;;;5.97;2.28;;;10.60;86.40;;;;;;4980967;28;20061;-68
2023/05/08 10:40:34;;;;;;;4.45;1.60;;;10.60;88.20;;;;;;4979093;28;20054;-64
2023/05/08 10:43:02;;;;;;;4.20;1.88;;;10.40;86.80;;;;;;4974378;28;20129;-64
2023/05/08 10:45:30;;;;;;;5.90;1.60;;;10.60;87.50;;;;;;4974172;28;20101;-61
2023/05/08 10:48:22;;;;;;;2.53;1.80;;;10.70;85.90;;;;;;4976483;28;20052;-64
2023/05/08 10:51:04;;;;;;;2.67;2.25;;;10.50;85.30;;;;;;4978256;28;20059;-65
2023/05/08 10:54:04;;;;;;;2.40;1.52;;;10.50;84.10;;;;;;4979263;28;20062;-70
2023/05/08 10:56:30;;;;;;;3.40;1.25;;;10.60;85.60;;;;;;4971462;28;20043;-61
2023/05/08 10:58:58;;;;;;;6.13;2.10;;;10.70;83.00;;;;;;4975430;28;20057;-66
2023/05/08 11:01:25;;;;;;;2.25;2.05;;;10.80;83.00;;;;;;4975624;28;20054;-61
2023/05/08 11:03:54;;;;;;;4.18;2.05;;;11.10;83.60;;;;;;4977635;28;20046;-66
2023/05/08 11:06:42;;;;;;;2.67;1.92;;;11.10;82.00;;;;;;4980974;28;20046;-62
2023/05/08 11:09:27;;;;;;;4.65;2.15;;;11.00;81.20;;;;;;4971751;28;20734;-63
2023/05/08 11:12:19;;;;;;;3.05;1.88;;;11.00;80.40;;;;;;4970975;28;20047;-63
2023/05/08 11:14:58;;;;;;;4.22;1.45;;;11.00;79.60;;;;;;4955861;28;20482;-74
2023/05/08 11:17:25;;;;;;;2.50;1.63;;;10.90;80.60;;;;;;4974330;28;20468;-62
2023/05/08 11:19:56;;;;;;;1.48;1.38;;;10.80;80.30;;;;;;4971940;28;20043;-75
2023/05/08 11:22:25;;;;;;;1.60;1.50;;;10.90;81.60;;;;;;4943363;28;20055;-66
2023/05/08 11:24:55;;;;;;;2.63;1.75;;;11.10;79.20;;;;;;4976859;28;20055;-65
2023/05/08 11:27:40;;;;;;;2.67;1.38;;;11.30;79.40;;;;;;4975297;28;20054;-64
2023/05/08 11:30:36;;;;;;;1.95;1.33;;;11.40;77.60;;;;;;4978210;28;20146;-62
2023/05/08 11:33:03;;;;;;;2.92;1.75;;;11.50;78.20;;;;;;4975246;28;20455;-67
2023/05/08 11:35:42;;;;;;;5.00;2.42;;;11.40;79.80;;;;;;4978129;28;20477;-66
2023/05/08 11:38:21;;;;;;;3.47;1.83;;;11.60;80.00;;;;;;4972325;28;20061;-65
2023/05/08 11:40:52;;;;;;;4.60;1.55;;;11.80;79.50;;;;;;4981808;28;20443;-66
2023/05/08 11:43:32;;;;;;;2.28;1.95;;;11.80;77.10;;;;;;4981204;28;20570;-64
2023/05/08 11:46:03;;;;;;;4.70;1.65;;;11.80;78.50;;;;;;4984264;28;20157;-69
2023/05/08 11:48:31;;;;;;;3.08;2.20;;;11.70;80.60;;;;;;4985873;28;20085;-63
2023/05/08 11:50:59;;;;;;;2.60;1.98;;;11.80;80.40;;;;;;4979632;28;20050;-63
2023/05/08 11:53:26;;;;;;;3.70;2.00;;;11.80;80.50;;;;;;4967707;28;20412;-67
2023/05/08 11:55:53;;;;;;;1.65;1.38;;;11.70;79.70;;;;;;4984858;28;20141;-68
2023/05/08 11:58:21;;;;;;;4.50;2.00;;;11.40;78.60;;;;;;4978842;28;20063;-63
2023/05/08 12:00:48;;;;;;;4.85;2.45;;;11.30;83.40;;;;;;4970343;28;20485;-63
2023/05/08 12:03:17;;;;;;;2.75;1.70;;;11.40;85.60;;;;;;4979056;28;20442;-64
2023/05/08 12:05:45;;;;;;;3.58;1.70;;;11.30;88.50;;;;;;4985122;28;20046;-64
2023/05/08 12:08:14;;;;;;;3.85;1.85;;;11.20;89.80;;;;;;4981469;28;20046;-66
2023/05/08 12:10:53;;;;;;;3.05;2.15;;;11.30;90.60;;;;;;4984917;28;20050;-65
2023/05/08 12:13:25;;;;;;;5.68;2.22;;;11.50;90.10;;;;;;4981575;28;20066;-75
2023/05/08 12:15:54;;;;;;;5.07;2.47;;;11.60;87.70;;;;;;4981326;28;20408;-64
2023/05/08 12:18:23;;;;;;;5.10;2.67;;;11.80;86.40;;;;;;4976091;28;20097;-60
2023/05/08 12:21:00;;;;;;;2.28;1.88;;;11.80;85.70;;;;;;4977137;28;20055;-63
2023/05/08 12:23:28;;;;;;;2.45;2.03;;;11.70;87.60;;;;;;4973913;28;20683;-61
2023/05/08 12:25:59;;;;;;;5.65;2.88;;;11.80;87.60;;;;;;4980491;28;20092;-66
2023/05/08 12:28:26;;;;;;;8.05;2.45;;;11.90;84.30;;;;;;4982988;28;20117;-62
2023/05/08 12:30:53;;;;;;;5.00;3.08;;;12.00;83.20;;;;;;4975092;28;20097;-60
2023/05/08 12:33:21;;;;;;;4.45;3.13;;;12.20;82.60;;;;;;4975889;28;20105;-68
2023/05/08 12:35:48;;;;;;;9.90;2.55;;;12.20;80.90;;;;;;4980909;28;20536;-60
2023/05/08 12:38:15;;;;;;;4.95;2.85;;;12.30;80.30;;;;;;4978229;28;20064;-66
2023/05/08 12:40:44;;;;;;;3.83;2.40;;;12.40;80.00;;;;;;4977001;28;20057;-69
2023/05/08 12:43:11;;;;;;;3.55;2.20;;;12.60;80.30;;;;;;4978324;28;20801;-60
2023/05/08 12:45:40;;;;;;;4.03;2.20;;;12.60;81.20;;;;;;4983475;28;20073;-64
2023/05/08 12:48:12;;;;;;;2.92;2.35;;;12.50;80.30;;;;;;4979358;28;20792;-72
2023/05/08 12:50:41;;;;;;;4.72;2.50;;;12.60;81.60;;;;;;4979290;28;20053;-62
2023/05/08 12:53:11;;;;;;;3.60;2.07;;;12.70;81.30;;;;;;4978423;28;20086;-64
2023/05/08 12:55:40;;;;;;;3.63;1.75;;;12.40;82.50;;;;;;4978103;28;20168;-60
2023/05/08 12:58:08;;;;;;;2.17;1.67;;;12.30;83.40;;;;;;4978381;28;20096;-67
2023/05/08 13:00:50;;;;;;;3.67;1.77;;;12.30;83.90;;;;;;4976741;28;20046;-66
2023/05/08 13:03:25;;;;;;;1.48;1.38;;;12.20;84.90;;;;;;4977887;28;20070;-63
2023/05/08 13:05:54;;;;;;;6.18;2.42;;;12.20;86.70;;;;;;4974342;28;20062;-64
2023/05/08 13:08:41;;;;;;;3.13;1.55;;;12.30;88.90;;;;;;4978252;28;20420;-60
2023/05/08 13:11:08;;;;;;;2.85;1.88;;;12.10;88.00;;;;;;4971640;28;20172;-65
2023/05/08 13:13:36;;;;;;;4.07;2.35;;;12.00;87.30;;;;;;4976609;28;20058;-63